createdAt,value
2023-01-18T00:01:13.585Z,4.85
2023-01-18T00:03:40.512Z,4.85
2023-01-18T00:06:09.189Z,4.38
2023-01-18T00:08:37.526Z,5.18
2023-01-18T00:11:06.989Z,4.75
2023-01-18T00:13:35.816Z,4.63
2023-01-18T00:16:04.335Z,4.32
2023-01-18T00:18:31.518Z,4.90
2023-01-18T00:21:06.423Z,4.63
2023-01-18T00:23:33.276Z,4.70
2023-01-18T00:26:04.618Z,4.45
2023-01-18T00:28:31.472Z,4.38
2023-01-18T00:31:01.345Z,4.30
2023-01-18T00:33:28.314Z,5.18
2023-01-18T00:35:59.387Z,3.92
2023-01-18T00:38:26.639Z,4.40
2023-01-18T00:40:53.183Z,4.97
2023-01-18T00:43:38.340Z,3.97
2023-01-18T00:46:10.968Z,4.40
2023-01-18T00:48:41.191Z,4.50
2023-01-18T00:51:09.527Z,4.43
2023-01-18T00:53:38.158Z,4.80
2023-01-18T00:56:09.930Z,4.00
2023-01-18T00:58:37.749Z,3.88
2023-01-18T01:01:06.221Z,3.97
2023-01-18T01:03:53.462Z,4.50
2023-01-18T01:06:45.445Z,4.45
2023-01-18T01:09:16.905Z,4.10
2023-01-18T01:12:03.032Z,4.30
2023-01-18T01:14:49.168Z,4.38
2023-01-18T01:17:36.097Z,3.95
2023-01-18T01:20:21.932Z,4.45
2023-01-18T01:23:07.164Z,4.10
2023-01-18T01:25:54.327Z,4.57
2023-01-18T01:28:21.014Z,3.90
2023-01-18T01:30:47.770Z,4.03
2023-01-18T01:33:14.464Z,4.10
2023-01-18T01:35:41.053Z,4.20
2023-01-18T01:38:07.536Z,4.80
2023-01-18T01:40:34.388Z,4.10
2023-01-18T01:43:01.073Z,4.32
2023-01-18T01:45:31.563Z,4.40
2023-01-18T01:47:58.828Z,4.18
2023-01-18T01:50:33.866Z,3.92
2023-01-18T01:53:00.406Z,4.32
2023-01-18T01:55:36.918Z,3.85
2023-01-18T01:58:22.446Z,4.50
2023-01-18T02:00:49.280Z,3.55
2023-01-18T02:03:20.975Z,3.95
2023-01-18T02:05:52.914Z,3.55
2023-01-18T02:08:23.016Z,4.65
2023-01-18T02:10:50.881Z,4.65
2023-01-18T02:13:19.902Z,4.10
2023-01-18T02:16:32.141Z,3.85
2023-01-18T02:19:17.123Z,3.83
2023-01-18T02:21:46.646Z,4.13
2023-01-18T02:24:50.540Z,3.92
2023-01-18T02:27:33.812Z,3.83
2023-01-18T02:30:09.223Z,4.10
2023-01-18T02:32:49.814Z,4.00
2023-01-18T02:35:41.715Z,4.18
2023-01-18T02:38:26.363Z,4.13
2023-01-18T02:41:17.022Z,4.43
2023-01-18T02:44:04.041Z,4.63
2023-01-18T02:46:35.837Z,4.10
2023-01-18T02:49:23.745Z,4.65
2023-01-18T02:51:50.411Z,4.80
2023-01-18T02:54:24.428Z,4.70
2023-01-18T02:56:53.882Z,4.30
2023-01-18T02:59:28.069Z,4.88
2023-01-18T03:02:01.966Z,4.75
2023-01-18T03:04:33.536Z,4.65
2023-01-18T03:07:11.227Z,4.18
2023-01-18T03:09:39.751Z,4.07
2023-01-18T03:12:12.837Z,4.45
2023-01-18T03:14:55.311Z,4.20
2023-01-18T03:17:29.556Z,4.00
2023-01-18T03:20:03.788Z,4.13
2023-01-18T03:22:54.219Z,4.10
2023-01-18T03:25:35.072Z,4.18
2023-01-18T03:28:27.886Z,4.10
2023-01-18T03:31:18.611Z,4.13
2023-01-18T03:33:55.211Z,3.72
2023-01-18T03:36:38.587Z,4.00
2023-01-18T03:39:10.343Z,4.03
2023-01-18T03:41:42.273Z,4.20
2023-01-18T03:44:18.503Z,4.18
2023-01-18T03:46:45.461Z,4.00
2023-01-18T03:49:13.041Z,4.32
2023-01-18T03:52:15.525Z,3.80
2023-01-18T03:54:55.118Z,3.83
2023-01-18T03:57:31.989Z,3.92
2023-01-18T04:00:00.218Z,4.28
2023-01-18T04:02:28.000Z,3.97
2023-01-18T04:04:57.651Z,3.60
2023-01-18T04:07:28.550Z,3.83
2023-01-18T04:09:55.068Z,3.63
2023-01-18T04:12:21.653Z,4.10
2023-01-18T04:14:48.344Z,4.13
2023-01-18T04:17:15.079Z,3.88
2023-01-18T04:19:41.716Z,3.85
2023-01-18T04:22:09.859Z,4.78
2023-01-18T04:24:36.574Z,4.22
2023-01-18T04:27:03.871Z,4.07
2023-01-18T04:29:31.033Z,3.53
2023-01-18T04:31:58.007Z,4.75
2023-01-18T04:34:24.658Z,4.13
2023-01-18T04:36:51.754Z,4.47
2023-01-18T04:39:18.751Z,4.03
2023-01-18T04:41:45.937Z,3.90
2023-01-18T04:44:12.897Z,4.07
2023-01-18T04:46:39.854Z,4.10
2023-01-18T04:49:10.310Z,3.58
2023-01-18T04:51:38.774Z,3.50
2023-01-18T04:54:05.271Z,3.75
2023-01-18T04:56:31.913Z,3.80
2023-01-18T04:58:58.352Z,3.28
2023-01-18T05:01:25.382Z,3.63
2023-01-18T05:03:56.316Z,3.28
2023-01-18T05:06:24.505Z,3.17
2023-01-18T05:08:51.458Z,3.10
2023-01-18T05:11:20.935Z,3.33
2023-01-18T05:13:47.403Z,3.42
2023-01-18T05:16:17.569Z,2.63
2023-01-18T05:18:44.793Z,3.10
2023-01-18T05:21:11.740Z,2.80
2023-01-18T05:23:40.267Z,2.72
2023-01-18T05:26:14.431Z,2.88
2023-01-18T05:28:41.768Z,2.90
2023-01-18T05:31:08.934Z,2.72
2023-01-18T05:33:36.183Z,2.65
2023-01-18T05:36:02.860Z,2.58
2023-01-18T05:38:29.408Z,2.75
2023-01-18T05:40:56.019Z,2.88
2023-01-18T05:43:24.318Z,2.67
2023-01-18T05:45:51.096Z,3.25
2023-01-18T05:48:18.551Z,3.00
2023-01-18T05:50:46.753Z,2.70
2023-01-18T05:53:16.479Z,2.55
2023-01-18T05:55:43.626Z,2.50
2023-01-18T05:58:10.415Z,2.85
2023-01-18T06:00:37.082Z,2.70
2023-01-18T06:03:03.608Z,2.78
2023-01-18T06:05:30.527Z,2.03
2023-01-18T06:07:57.045Z,2.53
2023-01-18T06:10:23.734Z,2.63
2023-01-18T06:12:50.459Z,2.17
2023-01-18T06:15:18.552Z,2.40
2023-01-18T06:17:47.073Z,2.55
2023-01-18T06:20:14.502Z,2.30
2023-01-18T06:22:41.065Z,2.40
2023-01-18T06:25:09.940Z,2.30
2023-01-18T06:27:37.645Z,2.13
2023-01-18T06:30:06.262Z,2.20
2023-01-18T06:32:33.178Z,2.47
2023-01-18T06:34:59.809Z,2.63
2023-01-18T06:37:26.597Z,2.53
2023-01-18T06:39:53.191Z,2.10
2023-01-18T06:42:19.788Z,2.33
2023-01-18T06:44:46.369Z,1.83
2023-01-18T06:47:15.502Z,2.47
2023-01-18T06:49:42.066Z,2.53
2023-01-18T06:52:08.582Z,2.42
2023-01-18T06:54:35.884Z,2.47
2023-01-18T06:57:02.736Z,2.53
2023-01-18T06:59:29.284Z,2.25
2023-01-18T07:01:55.968Z,3.17
2023-01-18T07:04:22.591Z,2.22
2023-01-18T07:06:49.468Z,2.20
2023-01-18T07:09:16.095Z,2.17
2023-01-18T07:11:43.386Z,2.30
2023-01-18T07:14:13.762Z,2.50
2023-01-18T07:16:40.633Z,2.30
2023-01-18T07:19:07.281Z,2.08
2023-01-18T07:21:33.955Z,2.47
2023-01-18T07:24:00.531Z,2.67
2023-01-18T07:26:27.119Z,2.83
2023-01-18T07:28:56.569Z,2.58
2023-01-18T07:31:25.206Z,2.47
2023-01-18T07:33:52.305Z,2.45
2023-01-18T07:36:19.008Z,3.10
2023-01-18T07:38:46.989Z,2.95
2023-01-18T07:41:15.126Z,3.13
2023-01-18T07:43:43.766Z,3.30
2023-01-18T07:46:16.880Z,3.15
2023-01-18T07:48:44.642Z,2.90
2023-01-18T07:51:12.087Z,3.40
2023-01-18T07:53:39.080Z,3.33
2023-01-18T07:56:12.804Z,3.42
2023-01-18T07:58:40.020Z,3.47
2023-01-18T08:01:09.653Z,3.20
2023-01-18T08:03:37.453Z,3.53
2023-01-18T08:06:06.460Z,3.25
2023-01-18T08:08:35.099Z,3.55
2023-01-18T08:11:03.983Z,3.53
2023-01-18T08:13:31.134Z,3.25
2023-01-18T08:16:00.370Z,3.28
2023-01-18T08:18:27.042Z,3.60
2023-01-18T08:20:55.153Z,3.38
2023-01-18T08:23:22.109Z,3.50
2023-01-18T08:25:48.677Z,3.45
2023-01-18T08:28:15.389Z,3.15
2023-01-18T08:30:45.319Z,3.30
2023-01-18T08:33:12.339Z,3.97
2023-01-18T08:35:44.451Z,3.70
2023-01-18T08:38:13.233Z,3.72
2023-01-18T08:40:40.201Z,3.65
2023-01-18T08:43:07.353Z,4.00
2023-01-18T08:45:37.411Z,3.72
2023-01-18T08:48:07.028Z,2.53
2023-01-18T08:50:34.960Z,4.55
2023-01-18T08:53:02.777Z,3.75
2023-01-18T08:55:34.138Z,4.70
2023-01-18T08:58:00.849Z,4.30
2023-01-18T09:00:30.682Z,4.50
2023-01-18T09:02:58.708Z,4.30
2023-01-18T09:05:27.766Z,4.03
2023-01-18T09:07:55.170Z,4.63
2023-01-18T09:10:22.862Z,4.57
2023-01-18T09:12:49.699Z,4.60
2023-01-18T09:15:18.193Z,5.00
2023-01-18T09:17:45.127Z,5.00
2023-01-18T09:20:12.342Z,4.38
2023-01-18T09:22:39.589Z,4.95
2023-01-18T09:25:06.700Z,4.82
2023-01-18T09:27:33.541Z,3.78
2023-01-18T09:30:00.345Z,3.92
2023-01-18T09:32:27.511Z,4.70
2023-01-18T09:34:54.898Z,3.90
2023-01-18T09:37:21.748Z,3.97
2023-01-18T09:39:52.083Z,4.18
2023-01-18T09:42:22.611Z,4.10
2023-01-18T09:44:53.872Z,3.45
2023-01-18T09:47:34.555Z,4.45
2023-01-18T09:50:10.914Z,4.10
2023-01-18T09:53:17.117Z,4.57
2023-01-18T09:55:46.673Z,4.20
2023-01-18T09:58:34.732Z,4.13
2023-01-18T10:01:08.133Z,3.78
2023-01-18T10:03:53.334Z,3.63
2023-01-18T10:06:26.259Z,3.88
2023-01-18T10:08:59.637Z,2.97
2023-01-18T10:11:33.243Z,4.18
2023-01-18T10:14:09.157Z,3.28
2023-01-18T10:16:38.063Z,2.80
2023-01-18T10:19:15.832Z,3.05
2023-01-18T10:21:52.209Z,2.97
2023-01-18T10:24:26.367Z,3.63
2023-01-18T10:26:57.326Z,3.15
2023-01-18T10:29:41.904Z,3.10
2023-01-18T10:32:20.814Z,2.90
2023-01-18T10:34:51.950Z,2.60
2023-01-18T10:37:37.630Z,2.78
2023-01-18T10:40:07.740Z,2.47
2023-01-18T10:42:43.503Z,2.28
2023-01-18T10:45:20.293Z,2.58
2023-01-18T10:47:53.243Z,2.63
2023-01-18T10:50:40.556Z,2.20
2023-01-18T10:53:19.197Z,2.20
2023-01-18T10:56:11.001Z,2.78
2023-01-18T10:58:44.409Z,2.35
2023-01-18T11:01:20.118Z,1.85
2023-01-18T11:03:50.721Z,2.67
2023-01-18T11:06:20.405Z,2.20
2023-01-18T11:08:48.793Z,1.95
2023-01-18T11:11:59.352Z,2.00
2023-01-18T11:14:30.925Z,1.85
2023-01-18T11:17:04.395Z,1.88
2023-01-18T11:19:31.109Z,2.03
2023-01-18T11:21:57.825Z,1.90
2023-01-18T11:24:29.866Z,1.70
2023-01-18T11:27:01.721Z,1.90
2023-01-18T11:29:32.343Z,1.67
2023-01-18T11:32:05.890Z,1.70
2023-01-18T11:34:36.086Z,1.85
2023-01-18T11:37:03.979Z,2.03
2023-01-18T11:39:32.277Z,2.05
2023-01-18T11:42:14.131Z,1.98
2023-01-18T11:45:12.130Z,2.10
2023-01-18T11:47:58.028Z,2.72
2023-01-18T11:50:54.842Z,2.65
2023-01-18T11:53:54.255Z,2.13
2023-01-18T11:56:31.333Z,2.63
2023-01-18T11:58:58.388Z,2.55
2023-01-18T12:01:52.681Z,2.50
2023-01-18T12:04:42.042Z,2.03
2023-01-18T12:07:42.344Z,2.30
2023-01-18T12:10:18.611Z,1.80
2023-01-18T12:13:18.766Z,1.80
2023-01-18T12:16:08.422Z,2.25
2023-01-18T12:18:34.877Z,2.10
2023-01-18T12:21:23.891Z,2.08
2023-01-18T12:24:17.933Z,1.70
2023-01-18T12:27:00.653Z,2.40
2023-01-18T12:29:30.312Z,2.10
2023-01-18T12:32:28.793Z,2.20
2023-01-18T12:35:15.582Z,2.80
2023-01-18T12:37:57.723Z,2.90
2023-01-18T12:40:42.590Z,2.10
2023-01-18T12:43:28.285Z,2.17
2023-01-18T12:46:04.487Z,3.00
2023-01-18T12:48:36.976Z,3.15
2023-01-18T12:51:14.802Z,3.10
2023-01-18T12:53:50.531Z,3.50
2023-01-18T12:56:25.604Z,3.65
2023-01-18T12:59:01.750Z,4.15
2023-01-18T13:01:33.910Z,3.58
2023-01-18T13:04:11.666Z,3.58
2023-01-18T13:06:39.486Z,4.15
2023-01-18T13:09:14.238Z,4.30
2023-01-18T13:11:43.246Z,4.50
2023-01-18T13:14:33.534Z,4.43
2023-01-18T13:17:35.408Z,4.15
2023-01-18T13:20:12.792Z,4.45
2023-01-18T13:23:14.576Z,4.40
2023-01-18T13:26:10.099Z,4.10
2023-01-18T13:28:37.035Z,3.97
2023-01-18T13:31:06.239Z,4.72
2023-01-18T13:33:36.566Z,4.95
2023-01-18T13:36:08.013Z,5.57
2023-01-18T13:38:42.304Z,6.00
2023-01-18T13:41:13.484Z,6.57
2023-01-18T13:43:41.355Z,5.80
2023-01-18T13:46:07.927Z,4.78
2023-01-18T13:48:45.115Z,5.18
2023-01-18T13:51:40.776Z,5.97
2023-01-18T13:54:18.583Z,7.00
2023-01-18T13:57:04.456Z,7.32
2023-01-18T13:59:40.660Z,7.05
2023-01-18T14:02:29.226Z,7.80
2023-01-18T14:05:07.628Z,7.70
2023-01-18T14:07:47.139Z,7.55
2023-01-18T14:10:25.722Z,6.35
2023-01-18T14:12:55.434Z,6.03
2023-01-18T14:15:40.101Z,6.27
2023-01-18T14:18:29.689Z,5.75
2023-01-18T14:21:05.172Z,5.93
2023-01-18T14:24:06.649Z,6.15
2023-01-18T14:26:36.233Z,6.35
2023-01-18T14:29:08.130Z,5.82
2023-01-18T14:31:40.696Z,6.15
2023-01-18T14:34:40.861Z,5.70
2023-01-18T14:37:28.795Z,5.72
2023-01-18T14:40:16.209Z,5.75
2023-01-18T14:42:50.854Z,5.70
2023-01-18T14:45:27.114Z,6.25
2023-01-18T14:47:56.276Z,5.80
2023-01-18T14:50:26.303Z,6.47
2023-01-18T14:52:53.955Z,7.35
2023-01-18T14:55:32.718Z,7.68
2023-01-18T14:58:15.503Z,7.13
2023-01-18T15:00:49.017Z,7.68
2023-01-18T15:03:27.494Z,7.82
2023-01-18T15:06:09.240Z,7.97
2023-01-18T15:08:36.378Z,8.02
2023-01-18T15:11:05.185Z,7.95
2023-01-18T15:13:33.997Z,7.32
2023-01-18T15:16:02.202Z,7.50
2023-01-18T15:18:29.833Z,7.47
2023-01-18T15:21:15.415Z,7.95
2023-01-18T15:23:43.432Z,8.98
2023-01-18T15:26:10.068Z,8.85
2023-01-18T15:28:36.688Z,10.32
2023-01-18T15:31:13.276Z,9.20
2023-01-18T15:33:40.531Z,9.18
2023-01-18T15:36:09.656Z,9.70
2023-01-18T15:38:36.467Z,9.13
2023-01-18T15:41:14.775Z,9.98
2023-01-18T15:43:43.605Z,10.27
2023-01-18T15:46:14.636Z,11.32
2023-01-18T15:48:49.951Z,13.52
2023-01-18T15:51:16.789Z,10.93
2023-01-18T15:53:52.467Z,9.75
2023-01-18T15:56:25.464Z,10.05
2023-01-18T15:58:56.085Z,10.60
2023-01-18T16:04:01.087Z,10.52
2023-01-18T16:06:29.713Z,11.00
2023-01-18T16:09:13.250Z,11.77
2023-01-18T16:11:56.602Z,11.70
2023-01-18T16:14:25.711Z,12.40
2023-01-18T16:16:54.231Z,11.60
2023-01-18T16:19:29.064Z,12.23
2023-01-18T16:22:02.225Z,12.65
2023-01-18T16:24:28.752Z,12.73
2023-01-18T16:26:57.694Z,12.88
2023-01-18T16:29:24.387Z,13.57
2023-01-18T16:31:51.035Z,12.45
2023-01-18T16:34:23.954Z,12.52
2023-01-18T16:36:52.440Z,12.75
2023-01-18T16:39:20.401Z,12.05
2023-01-18T16:41:53.723Z,11.55
2023-01-18T16:44:20.983Z,12.20
2023-01-18T16:46:48.521Z,14.52
2023-01-18T16:49:16.249Z,12.48
2023-01-18T16:51:42.764Z,11.70
2023-01-18T16:54:09.300Z,12.38
2023-01-18T16:56:36.027Z,12.98
2023-01-18T16:59:14.732Z,12.55
2023-01-18T17:01:41.552Z,12.45
2023-01-18T17:04:09.798Z,14.25
2023-01-18T17:06:36.534Z,11.43
2023-01-18T17:09:03.685Z,11.70
2023-01-18T17:11:30.175Z,10.73
2023-01-18T17:13:56.736Z,10.63
2023-01-18T17:16:23.463Z,11.10
2023-01-18T17:18:50.254Z,11.27
2023-01-18T17:21:16.750Z,12.15
2023-01-18T17:23:43.314Z,10.88
2023-01-18T17:26:14.743Z,10.43
2023-01-18T17:28:41.331Z,9.18
2023-01-18T17:31:08.494Z,9.90
2023-01-18T17:33:40.957Z,9.98
2023-01-18T17:36:09.002Z,10.38
2023-01-18T17:38:41.910Z,10.25
2023-01-18T17:41:38.057Z,12.65
2023-01-18T17:46:57.033Z,10.90
2023-01-18T17:49:23.542Z,10.15
2023-01-18T17:51:50.279Z,11.07
2023-01-18T17:54:21.036Z,10.98
2023-01-18T17:56:47.653Z,10.55
2023-01-18T17:59:14.205Z,10.13
2023-01-18T18:01:41.235Z,10.45
2023-01-18T18:04:08.078Z,9.82
2023-01-18T18:06:36.328Z,10.48
2023-01-18T18:09:04.494Z,9.98
2023-01-18T18:11:31.165Z,9.65
2023-01-18T18:13:59.192Z,10.10
2023-01-18T18:16:26.673Z,10.52
2023-01-18T18:18:53.560Z,10.40
2023-01-18T18:21:23.052Z,10.15
2023-01-18T18:23:49.843Z,11.70
2023-01-18T18:26:16.374Z,10.27
2023-01-18T18:28:42.975Z,10.43
2023-01-18T18:31:15.494Z,10.90
2023-01-18T18:33:42.370Z,10.55
2023-01-18T18:36:09.017Z,11.18
2023-01-18T18:38:35.481Z,10.45
2023-01-18T18:41:03.935Z,11.30
2023-01-18T18:43:30.624Z,10.77
2023-01-18T18:45:57.622Z,10.40
2023-01-18T18:48:24.412Z,10.57
2023-01-18T18:50:54.113Z,10.95
2023-01-18T18:53:23.821Z,10.87
2023-01-18T18:55:59.327Z,10.75
2023-01-18T18:58:26.059Z,10.52
2023-01-18T19:00:52.529Z,10.63
2023-01-18T19:03:20.908Z,11.27
2023-01-18T19:05:47.365Z,11.02
2023-01-18T19:08:13.844Z,11.10
2023-01-18T19:10:40.392Z,10.68
2023-01-18T19:13:07.391Z,11.57
2023-01-18T19:15:33.842Z,10.73
2023-01-18T19:18:00.878Z,11.68
2023-01-18T19:20:27.598Z,11.90
2023-01-18T19:22:54.085Z,13.88
2023-01-18T19:25:20.744Z,12.82
2023-01-18T19:27:47.175Z,12.07
2023-01-18T19:30:18.565Z,13.05
2023-01-18T19:32:50.884Z,12.18
2023-01-18T19:35:18.876Z,14.05
2023-01-18T19:37:46.223Z,16.05
2023-01-18T19:40:13.896Z,15.35
2023-01-18T19:42:40.585Z,13.82
2023-01-18T19:45:11.507Z,13.70
2023-01-18T19:47:41.334Z,13.00
2023-01-18T19:50:08.463Z,13.65
2023-01-18T19:52:34.994Z,13.82
2023-01-18T19:55:03.043Z,13.60
2023-01-18T19:57:29.741Z,14.30
2023-01-18T19:59:57.178Z,13.50
2023-01-18T20:02:24.080Z,12.85
2023-01-18T20:04:51.986Z,12.15
2023-01-18T20:07:18.659Z,12.38
2023-01-18T20:09:45.429Z,11.23
2023-01-18T20:12:13.383Z,11.77
2023-01-18T20:14:42.476Z,11.77
2023-01-18T20:17:16.347Z,11.07
2023-01-18T20:19:44.296Z,11.95
2023-01-18T20:22:11.386Z,11.25
2023-01-18T20:24:37.875Z,12.35
2023-01-18T20:27:15.366Z,12.60
2023-01-18T20:29:43.745Z,11.73
2023-01-18T20:32:16.230Z,11.15
2023-01-18T20:34:44.789Z,11.82
2023-01-18T20:37:12.383Z,11.70
2023-01-18T20:39:39.320Z,12.23
2023-01-18T20:42:05.853Z,10.98
2023-01-18T20:44:33.405Z,11.45
2023-01-18T20:46:59.980Z,10.75
2023-01-18T20:49:36.983Z,11.35
2023-01-18T20:52:05.951Z,11.20
2023-01-18T20:54:34.660Z,10.98
2023-01-18T20:57:01.457Z,11.20
2023-01-18T20:59:28.735Z,10.43
2023-01-18T21:01:55.461Z,11.35
2023-01-18T21:04:22.079Z,11.00
2023-01-18T21:06:49.944Z,11.20
2023-01-18T21:09:16.869Z,10.43
2023-01-18T21:11:43.793Z,10.43
2023-01-18T21:14:10.404Z,11.43
2023-01-18T21:16:37.184Z,10.02
2023-01-18T21:19:03.821Z,10.88
2023-01-18T21:21:31.829Z,10.65
2023-01-18T21:23:59.441Z,10.30
2023-01-18T21:26:26.232Z,11.15
2023-01-18T21:28:53.715Z,11.15
2023-01-18T21:31:20.635Z,10.65
2023-01-18T21:33:47.254Z,10.93
2023-01-18T21:36:17.424Z,11.73
2023-01-18T21:38:44.390Z,11.20
2023-01-18T21:41:29.897Z,11.65
2023-01-18T21:44:15.006Z,11.02
2023-01-18T21:46:47.023Z,10.48
2023-01-18T21:50:03.938Z,11.23
2023-01-18T21:52:37.878Z,11.50
2023-01-18T21:55:04.787Z,11.13
2023-01-18T21:57:31.314Z,11.27
2023-01-18T21:59:57.964Z,10.95
2023-01-18T22:02:24.655Z,11.77
2023-01-18T22:05:00.442Z,11.90
2023-01-18T22:07:28.174Z,12.20
2023-01-18T22:10:04.098Z,11.65
2023-01-18T22:12:33.398Z,11.63
2023-01-18T22:15:01.958Z,11.35
2023-01-18T22:17:28.688Z,11.52
2023-01-18T22:19:55.388Z,12.38
2023-01-18T22:22:21.898Z,11.43
2023-01-18T22:24:48.345Z,11.45
2023-01-18T22:27:14.835Z,11.25
2023-01-18T22:29:41.499Z,11.45
2023-01-18T22:32:08.123Z,12.18
2023-01-18T22:34:34.684Z,11.77
2023-01-18T22:37:01.114Z,11.95
2023-01-18T22:39:27.578Z,12.38
2023-01-18T22:41:54.083Z,12.38
2023-01-18T22:44:20.806Z,12.75
2023-01-18T22:46:47.461Z,12.02
2023-01-18T22:49:14.124Z,11.80
2023-01-18T22:51:41.035Z,12.65
2023-01-18T22:54:07.749Z,13.43
2023-01-18T22:56:34.346Z,12.88
2023-01-18T22:59:00.860Z,12.77
2023-01-18T23:01:32.515Z,12.13
2023-01-18T23:04:02.338Z,11.32
2023-01-18T23:06:34.841Z,12.50
2023-01-18T23:09:01.499Z,12.68
2023-01-18T23:11:30.249Z,12.00
2023-01-18T23:14:16.933Z,12.07
2023-01-18T23:17:02.918Z,12.05
2023-01-18T23:19:30.998Z,11.98
2023-01-18T23:21:58.007Z,11.90
2023-01-18T23:24:25.271Z,11.40
2023-01-18T23:26:52.318Z,13.00
2023-01-18T23:29:20.051Z,12.00
2023-01-18T23:31:46.928Z,11.90
2023-01-18T23:34:13.485Z,11.25
2023-01-18T23:36:40.142Z,11.07
2023-01-18T23:39:25.315Z,11.40
2023-01-18T23:42:10.354Z,12.73
2023-01-18T23:44:55.360Z,11.18
2023-01-18T23:47:40.136Z,11.40
2023-01-18T23:50:25.684Z,12.23
2023-01-18T23:53:11.143Z,10.70
2023-01-18T23:55:37.798Z,11.27
2023-01-18T23:58:04.329Z,13.48
